Wyeville, Wisconsin
Current Conditions -  °F | °C
As of 6:35 AM on Monday 20 Oct 2014 (Local Time) from KCMY Reporting Station
Clear Clear  
Wind Chill: 45°   Ceiling: Unl
Heat Index: 47°   Visibility: 10mi
Dew Point: 40°   Wind: 5mph
Humidity: 77%   Direction: 290°WNW
Pressure: 29.9"   Gusts: NA
Location:  44.0237°N, 90.4921°W
Report Text: KCMY 201135Z AUTO 29004KT 10SM CLR 08/05 A2990 RMK AO2 T00840046
Loading
Personal Weather Stations






























Interactive Weather Map
Tropical Storm Tracking
New forecast layout! Learn more

10-Day Weather Forecast

Advertisements
Track Severe Weather on mobile